Aviation Digital Data Service (ADDS)

Output produced by METARs form (1419 UTC 08 May 2021)
found at http://aviationweather.gov/metar/data/
 
KSGR 081413Z 18012KT 10SM FEW013 BKN022 25/21 A3001 RMK AO2 T02500211
KSGR 081353Z 16011KT 10SM CLR 25/22 A3001 RMK AO2 SLP163 T02500217
KSGR 081321Z 17008KT 10SM FEW020 FEW026 24/21 A3001 RMK AO2 T02390211
KSGR 081226Z 0812/0912 16007KT P6SM SCT025 
     TEMPO 0812/0815 BKN025 
     FM081500 16014G24KT P6SM SCT030 
     FM081800 17017G27KT P6SM SCT045 
     FM090100 16014G24KT P6SM SCT025 
     FM090500 17015KT P6SM BKN025 
     FM091000 17012KT P6SM BKN015